sensor_id;sensor_type;location;lat;lon;timestamp;P1;durP1;ratioP1;P2;durP2;ratioP2
36355;SDS011;22384;54.302;18.596;2023-06-26T00:01:26;9.23;;;6.28;;
36355;SDS011;22384;54.302;18.596;2023-06-26T00:03:59;13.77;;;6.00;;
36355;SDS011;22384;54.302;18.596;2023-06-26T00:06:26;10.88;;;5.90;;
36355;SDS011;22384;54.302;18.596;2023-06-26T00:08:55;16.38;;;6.70;;
36355;SDS011;22384;54.302;18.596;2023-06-26T00:11:21;15.30;;;6.63;;
36355;SDS011;22384;54.302;18.596;2023-06-26T00:13:47;13.48;;;6.18;;
36355;SDS011;22384;54.302;18.596;2023-06-26T00:16:13;9.55;;;6.55;;
36355;SDS011;22384;54.302;18.596;2023-06-26T00:18:39;11.45;;;7.05;;
36355;SDS011;22384;54.302;18.596;2023-06-26T00:21:05;13.43;;;6.47;;
36355;SDS011;22384;54.302;18.596;2023-06-26T00:23:31;15.27;;;6.93;;
36355;SDS011;22384;54.302;18.596;2023-06-26T00:26:01;10.98;;;6.93;;
36355;SDS011;22384;54.302;18.596;2023-06-26T00:28:27;20.02;;;7.05;;
36355;SDS011;22384;54.302;18.596;2023-06-26T00:30:53;16.17;;;7.72;;
36355;SDS011;22384;54.302;18.596;2023-06-26T00:33:19;14.23;;;7.30;;
36355;SDS011;22384;54.302;18.596;2023-06-26T00:35:45;14.27;;;6.85;;
36355;SDS011;22384;54.302;18.596;2023-06-26T00:38:11;12.75;;;6.80;;
36355;SDS011;22384;54.302;18.596;2023-06-26T00:40:37;18.25;;;7.25;;
36355;SDS011;22384;54.302;18.596;2023-06-26T00:43:03;12.05;;;7.43;;
36355;SDS011;22384;54.302;18.596;2023-06-26T00:45:29;15.77;;;7.85;;
36355;SDS011;22384;54.302;18.596;2023-06-26T00:47:55;21.42;;;7.60;;
36355;SDS011;22384;54.302;18.596;2023-06-26T00:50:21;16.35;;;7.30;;
36355;SDS011;22384;54.302;18.596;2023-06-26T00:52:48;11.35;;;6.88;;
36355;SDS011;22384;54.302;18.596;2023-06-26T00:55:14;13.10;;;7.53;;
36355;SDS011;22384;54.302;18.596;2023-06-26T00:57:40;14.10;;;7.55;;
36355;SDS011;22384;54.302;18.596;2023-06-26T01:00:06;10.45;;;7.22;;
36355;SDS011;22384;54.302;18.596;2023-06-26T01:02:32;15.88;;;8.02;;
36355;SDS011;22384;54.302;18.596;2023-06-26T01:05:01;14.02;;;7.20;;
36355;SDS011;22384;54.302;18.596;2023-06-26T01:07:31;21.17;;;7.47;;
36355;SDS011;22384;54.302;18.596;2023-06-26T01:10:01;14.40;;;7.67;;
36355;SDS011;22384;54.302;18.596;2023-06-26T01:12:27;19.95;;;7.82;;
36355;SDS011;22384;54.302;18.596;2023-06-26T01:14:53;16.42;;;7.07;;
36355;SDS011;22384;54.302;18.596;2023-06-26T01:17:19;15.10;;;7.68;;
36355;SDS011;22384;54.302;18.596;2023-06-26T01:19:45;14.50;;;7.35;;
36355;SDS011;22384;54.302;18.596;2023-06-26T01:22:34;16.08;;;7.78;;
36355;SDS011;22384;54.302;18.596;2023-06-26T01:27:28;13.95;;;7.95;;
36355;SDS011;22384;54.302;18.596;2023-06-26T01:29:57;14.43;;;8.13;;
36355;SDS011;22384;54.302;18.596;2023-06-26T01:32:24;16.65;;;9.00;;
36355;SDS011;22384;54.302;18.596;2023-06-26T01:34:50;15.77;;;8.25;;
36355;SDS011;22384;54.302;18.596;2023-06-26T01:37:16;16.55;;;8.85;;
36355;SDS011;22384;54.302;18.596;2023-06-26T01:39:42;16.00;;;8.43;;
36355;SDS011;22384;54.302;18.596;2023-06-26T01:42:08;23.67;;;10.25;;
36355;SDS011;22384;54.302;18.596;2023-06-26T01:44:35;18.65;;;9.02;;
36355;SDS011;22384;54.302;18.596;2023-06-26T01:47:03;18.65;;;8.73;;
36355;SDS011;22384;54.302;18.596;2023-06-26T01:55:12;16.80;;;9.18;;
36355;SDS011;22384;54.302;18.596;2023-06-26T01:57:35;15.68;;;9.02;;
36355;SDS011;22384;54.302;18.596;2023-06-26T02:00:02;15.85;;;8.10;;
36355;SDS011;22384;54.302;18.596;2023-06-26T02:02:28;15.80;;;9.48;;
36355;SDS011;22384;54.302;18.596;2023-06-26T02:04:55;18.70;;;9.88;;
36355;SDS011;22384;54.302;18.596;2023-06-26T02:07:21;18.67;;;9.18;;
36355;SDS011;22384;54.302;18.596;2023-06-26T02:09:47;18.65;;;9.40;;
36355;SDS011;22384;54.302;18.596;2023-06-26T02:12:13;13.85;;;8.75;;
36355;SDS011;22384;54.302;18.596;2023-06-26T02:14:39;15.10;;;9.20;;
36355;SDS011;22384;54.302;18.596;2023-06-26T02:17:05;24.77;;;10.25;;
36355;SDS011;22384;54.302;18.596;2023-06-26T02:19:33;20.55;;;10.13;;
36355;SDS011;22384;54.302;18.596;2023-06-26T02:21:59;20.60;;;9.88;;
36355;SDS011;22384;54.302;18.596;2023-06-26T02:24:25;17.85;;;9.98;;
36355;SDS011;22384;54.302;18.596;2023-06-26T02:26:54;21.80;;;9.77;;
36355;SDS011;22384;54.302;18.596;2023-06-26T02:29:21;22.17;;;9.73;;
36355;SDS011;22384;54.302;18.596;2023-06-26T02:31:47;15.60;;;9.13;;
36355;SDS011;22384;54.302;18.596;2023-06-26T02:34:14;29.77;;;9.32;;
36355;SDS011;22384;54.302;18.596;2023-06-26T02:36:40;20.08;;;8.98;;
36355;SDS011;22384;54.302;18.596;2023-06-26T02:39:06;14.75;;;9.50;;
36355;SDS011;22384;54.302;18.596;2023-06-26T02:41:32;14.43;;;9.43;;
36355;SDS011;22384;54.302;18.596;2023-06-26T02:43:58;16.90;;;8.70;;
36355;SDS011;22384;54.302;18.596;2023-06-26T02:46:23;17.60;;;9.18;;
36355;SDS011;22384;54.302;18.596;2023-06-26T02:48:49;16.65;;;9.27;;
36355;SDS011;22384;54.302;18.596;2023-06-26T02:51:15;20.50;;;9.00;;
36355;SDS011;22384;54.302;18.596;2023-06-26T02:53:41;15.23;;;8.95;;
36355;SDS011;22384;54.302;18.596;2023-06-26T02:56:07;15.15;;;9.27;;
36355;SDS011;22384;54.302;18.596;2023-06-26T02:58:33;14.85;;;8.40;;
36355;SDS011;22384;54.302;18.596;2023-06-26T03:00:59;13.73;;;8.45;;
36355;SDS011;22384;54.302;18.596;2023-06-26T03:03:25;17.20;;;8.57;;
36355;SDS011;22384;54.302;18.596;2023-06-26T03:05:51;11.38;;;7.60;;
36355;SDS011;22384;54.302;18.596;2023-06-26T03:08:17;14.15;;;8.90;;
36355;SDS011;22384;54.302;18.596;2023-06-26T03:10:44;17.35;;;8.48;;
36355;SDS011;22384;54.302;18.596;2023-06-26T03:13:10;14.93;;;7.88;;
36355;SDS011;22384;54.302;18.596;2023-06-26T03:15:36;13.02;;;8.90;;
36355;SDS011;22384;54.302;18.596;2023-06-26T03:18:02;12.60;;;8.32;;
36355;SDS011;22384;54.302;18.596;2023-06-26T03:20:28;14.25;;;7.10;;
36355;SDS011;22384;54.302;18.596;2023-06-26T03:22:54;13.80;;;7.60;;
36355;SDS011;22384;54.302;18.596;2023-06-26T03:25:20;11.65;;;7.63;;
36355;SDS011;22384;54.302;18.596;2023-06-26T03:27:46;12.38;;;8.63;;
36355;SDS011;22384;54.302;18.596;2023-06-26T03:30:12;15.63;;;8.52;;
36355;SDS011;22384;54.302;18.596;2023-06-26T03:32:38;20.38;;;8.95;;
36355;SDS011;22384;54.302;18.596;2023-06-26T03:35:04;14.80;;;7.63;;
36355;SDS011;22384;54.302;18.596;2023-06-26T03:37:30;15.32;;;8.80;;
36355;SDS011;22384;54.302;18.596;2023-06-26T03:39:56;12.95;;;8.35;;
36355;SDS011;22384;54.302;18.596;2023-06-26T03:42:22;13.68;;;8.07;;
36355;SDS011;22384;54.302;18.596;2023-06-26T03:44:48;12.48;;;8.30;;
36355;SDS011;22384;54.302;18.596;2023-06-26T03:47:14;12.38;;;7.57;;
36355;SDS011;22384;54.302;18.596;2023-06-26T03:49:40;12.18;;;7.40;;
36355;SDS011;22384;54.302;18.596;2023-06-26T03:52:06;13.93;;;6.57;;
36355;SDS011;22384;54.302;18.596;2023-06-26T03:54:32;12.73;;;6.43;;
36355;SDS011;22384;54.302;18.596;2023-06-26T03:56:58;8.60;;;6.25;;
36355;SDS011;22384;54.302;18.596;2023-06-26T03:59:24;10.48;;;6.57;;
36355;SDS011;22384;54.302;18.596;2023-06-26T04:01:50;11.50;;;6.25;;
36355;SDS011;22384;54.302;18.596;2023-06-26T04:04:18;9.93;;;5.90;;
36355;SDS011;22384;54.302;18.596;2023-06-26T04:06:44;12.52;;;6.63;;
36355;SDS011;22384;54.302;18.596;2023-06-26T04:09:10;11.15;;;5.85;;
36355;SDS011;22384;54.302;18.596;2023-06-26T04:11:36;9.07;;;5.88;;
36355;SDS011;22384;54.302;18.596;2023-06-26T04:14:02;8.27;;;5.38;;
36355;SDS011;22384;54.302;18.596;2023-06-26T04:16:28;8.18;;;5.75;;
36355;SDS011;22384;54.302;18.596;2023-06-26T04:18:54;10.70;;;5.60;;
36355;SDS011;22384;54.302;18.596;2023-06-26T04:21:21;11.60;;;5.70;;
36355;SDS011;22384;54.302;18.596;2023-06-26T04:23:49;6.00;;;4.03;;
36355;SDS011;22384;54.302;18.596;2023-06-26T04:26:15;9.75;;;4.68;;
36355;SDS011;22384;54.302;18.596;2023-06-26T04:28:42;8.23;;;4.65;;
36355;SDS011;22384;54.302;18.596;2023-06-26T04:31:08;8.45;;;4.47;;
36355;SDS011;22384;54.302;18.596;2023-06-26T04:33:35;5.53;;;4.63;;
36355;SDS011;22384;54.302;18.596;2023-06-26T04:36:01;10.43;;;3.53;;
36355;SDS011;22384;54.302;18.596;2023-06-26T04:38:28;8.80;;;3.50;;
36355;SDS011;22384;54.302;18.596;2023-06-26T04:40:55;7.05;;;3.53;;
36355;SDS011;22384;54.302;18.596;2023-06-26T04:43:21;4.25;;;3.22;;
36355;SDS011;22384;54.302;18.596;2023-06-26T04:45:50;5.53;;;3.35;;
36355;SDS011;22384;54.302;18.596;2023-06-26T04:48:16;4.75;;;2.97;;
36355;SDS011;22384;54.302;18.596;2023-06-26T04:50:42;8.68;;;3.30;;
36355;SDS011;22384;54.302;18.596;2023-06-26T04:53:10;9.43;;;3.47;;
36355;SDS011;22384;54.302;18.596;2023-06-26T04:55:36;7.55;;;3.28;;
36355;SDS011;22384;54.302;18.596;2023-06-26T04:58:02;7.40;;;3.15;;
36355;SDS011;22384;54.302;18.596;2023-06-26T05:00:28;6.80;;;3.63;;
36355;SDS011;22384;54.302;18.596;2023-06-26T05:02:55;5.45;;;3.10;;
36355;SDS011;22384;54.302;18.596;2023-06-26T05:07:52;7.85;;;3.20;;
36355;SDS011;22384;54.302;18.596;2023-06-26T05:10:18;6.28;;;3.30;;
36355;SDS011;22384;54.302;18.596;2023-06-26T05:12:44;10.13;;;2.83;;
36355;SDS011;22384;54.302;18.596;2023-06-26T05:15:10;8.73;;;3.03;;
36355;SDS011;22384;54.302;18.596;2023-06-26T05:17:36;9.82;;;2.72;;
36355;SDS011;22384;54.302;18.596;2023-06-26T05:20:02;7.95;;;2.72;;
36355;SDS011;22384;54.302;18.596;2023-06-26T05:22:30;9.80;;;2.58;;
36355;SDS011;22384;54.302;18.596;2023-06-26T05:24:57;7.00;;;2.40;;
36355;SDS011;22384;54.302;18.596;2023-06-26T05:27:25;4.47;;;2.70;;
36355;SDS011;22384;54.302;18.596;2023-06-26T05:29:52;4.88;;;2.80;;
36355;SDS011;22384;54.302;18.596;2023-06-26T05:32:18;6.43;;;3.05;;
36355;SDS011;22384;54.302;18.596;2023-06-26T05:34:47;5.65;;;2.38;;
36355;SDS011;22384;54.302;18.596;2023-06-26T05:37:18;5.82;;;2.80;;
36355;SDS011;22384;54.302;18.596;2023-06-26T05:39:45;9.98;;;2.40;;
36355;SDS011;22384;54.302;18.596;2023-06-26T05:42:11;3.60;;;2.13;;
36355;SDS011;22384;54.302;18.596;2023-06-26T05:44:37;8.68;;;3.75;;
36355;SDS011;22384;54.302;18.596;2023-06-26T05:47:04;6.80;;;2.33;;
36355;SDS011;22384;54.302;18.596;2023-06-26T05:49:30;7.35;;;2.40;;
36355;SDS011;22384;54.302;18.596;2023-06-26T05:51:56;3.92;;;2.38;;
36355;SDS011;22384;54.302;18.596;2023-06-26T05:54:23;8.70;;;2.72;;
36355;SDS011;22384;54.302;18.596;2023-06-26T05:56:50;5.60;;;2.63;;
36355;SDS011;22384;54.302;18.596;2023-06-26T05:59:17;6.63;;;2.50;;
36355;SDS011;22384;54.302;18.596;2023-06-26T06:01:44;8.63;;;2.03;;
36355;SDS011;22384;54.302;18.596;2023-06-26T06:04:10;6.65;;;1.88;;
36355;SDS011;22384;54.302;18.596;2023-06-26T06:06:36;4.15;;;2.63;;
36355;SDS011;22384;54.302;18.596;2023-06-26T06:09:02;6.93;;;2.28;;
36355;SDS011;22384;54.302;18.596;2023-06-26T06:11:28;3.75;;;1.77;;
36355;SDS011;22384;54.302;18.596;2023-06-26T06:13:54;8.35;;;2.33;;
36355;SDS011;22384;54.302;18.596;2023-06-26T06:16:20;2.55;;;1.90;;
36355;SDS011;22384;54.302;18.596;2023-06-26T06:18:46;5.40;;;2.15;;
36355;SDS011;22384;54.302;18.596;2023-06-26T06:21:12;4.03;;;2.17;;
36355;SDS011;22384;54.302;18.596;2023-06-26T06:23:38;7.90;;;2.50;;
36355;SDS011;22384;54.302;18.596;2023-06-26T06:26:04;8.98;;;3.08;;
36355;SDS011;22384;54.302;18.596;2023-06-26T06:28:30;7.75;;;2.67;;
36355;SDS011;22384;54.302;18.596;2023-06-26T06:30:56;3.78;;;2.55;;
36355;SDS011;22384;54.302;18.596;2023-06-26T06:33:22;7.40;;;2.90;;
36355;SDS011;22384;54.302;18.596;2023-06-26T06:35:48;7.18;;;3.00;;
36355;SDS011;22384;54.302;18.596;2023-06-26T06:38:14;4.57;;;2.92;;
36355;SDS011;22384;54.302;18.596;2023-06-26T06:40:40;5.47;;;2.85;;
36355;SDS011;22384;54.302;18.596;2023-06-26T06:43:06;8.85;;;3.42;;
36355;SDS011;22384;54.302;18.596;2023-06-26T06:45:32;11.23;;;3.55;;
36355;SDS011;22384;54.302;18.596;2023-06-26T06:47:58;7.07;;;3.40;;
36355;SDS011;22384;54.302;18.596;2023-06-26T06:50:24;7.57;;;3.47;;
36355;SDS011;22384;54.302;18.596;2023-06-26T06:52:50;12.20;;;4.30;;
36355;SDS011;22384;54.302;18.596;2023-06-26T06:55:16;14.05;;;3.25;;
36355;SDS011;22384;54.302;18.596;2023-06-26T06:57:42;13.15;;;4.28;;
36355;SDS011;22384;54.302;18.596;2023-06-26T07:00:09;12.73;;;4.90;;
36355;SDS011;22384;54.302;18.596;2023-06-26T07:02:36;14.77;;;4.13;;
36355;SDS011;22384;54.302;18.596;2023-06-26T07:05:02;20.42;;;4.90;;
36355;SDS011;22384;54.302;18.596;2023-06-26T07:07:29;13.40;;;4.03;;
36355;SDS011;22384;54.302;18.596;2023-06-26T07:09:57;20.25;;;4.10;;
36355;SDS011;22384;54.302;18.596;2023-06-26T07:12:23;19.33;;;4.20;;
36355;SDS011;22384;54.302;18.596;2023-06-26T07:14:49;11.02;;;4.00;;
36355;SDS011;22384;54.302;18.596;2023-06-26T07:17:15;11.65;;;3.83;;
36355;SDS011;22384;54.302;18.596;2023-06-26T07:19:41;12.73;;;3.75;;
36355;SDS011;22384;54.302;18.596;2023-06-26T07:22:07;11.57;;;3.95;;
36355;SDS011;22384;54.302;18.596;2023-06-26T07:24:33;17.80;;;5.22;;
36355;SDS011;22384;54.302;18.596;2023-06-26T07:26:59;10.40;;;3.70;;
36355;SDS011;22384;54.302;18.596;2023-06-26T07:29:26;16.88;;;3.97;;
36355;SDS011;22384;54.302;18.596;2023-06-26T07:31:52;16.55;;;3.63;;
36355;SDS011;22384;54.302;18.596;2023-06-26T07:34:18;15.40;;;4.30;;
36355;SDS011;22384;54.302;18.596;2023-06-26T07:36:44;16.52;;;4.00;;
36355;SDS011;22384;54.302;18.596;2023-06-26T07:39:10;18.10;;;3.72;;
36355;SDS011;22384;54.302;18.596;2023-06-26T07:41:36;10.50;;;4.22;;
36355;SDS011;22384;54.302;18.596;2023-06-26T07:44:02;9.13;;;3.53;;
36355;SDS011;22384;54.302;18.596;2023-06-26T07:46:28;12.38;;;4.25;;
36355;SDS011;22384;54.302;18.596;2023-06-26T07:48:54;9.68;;;3.55;;
36355;SDS011;22384;54.302;18.596;2023-06-26T07:51:21;15.77;;;4.28;;
36355;SDS011;22384;54.302;18.596;2023-06-26T07:53:47;13.88;;;4.00;;
36355;SDS011;22384;54.302;18.596;2023-06-26T07:56:13;7.47;;;4.00;;
36355;SDS011;22384;54.302;18.596;2023-06-26T07:58:39;9.50;;;3.92;;
36355;SDS011;22384;54.302;18.596;2023-06-26T08:01:05;8.35;;;3.88;;
36355;SDS011;22384;54.302;18.596;2023-06-26T08:03:31;11.00;;;3.78;;
36355;SDS011;22384;54.302;18.596;2023-06-26T08:05:57;12.75;;;5.03;;
36355;SDS011;22384;54.302;18.596;2023-06-26T08:08:23;13.68;;;3.50;;
36355;SDS011;22384;54.302;18.596;2023-06-26T08:10:49;11.65;;;3.58;;
36355;SDS011;22384;54.302;18.596;2023-06-26T08:13:14;8.63;;;3.75;;
36355;SDS011;22384;54.302;18.596;2023-06-26T08:15:40;13.10;;;3.50;;
36355;SDS011;22384;54.302;18.596;2023-06-26T08:18:06;7.22;;;3.40;;
36355;SDS011;22384;54.302;18.596;2023-06-26T08:20:32;6.88;;;3.45;;
36355;SDS011;22384;54.302;18.596;2023-06-26T08:23:00;5.88;;;3.20;;
36355;SDS011;22384;54.302;18.596;2023-06-26T08:25:26;5.70;;;4.05;;
36355;SDS011;22384;54.302;18.596;2023-06-26T08:27:52;10.27;;;3.55;;
36355;SDS011;22384;54.302;18.596;2023-06-26T08:30:19;5.15;;;3.10;;
36355;SDS011;22384;54.302;18.596;2023-06-26T08:32:45;10.30;;;3.40;;
36355;SDS011;22384;54.302;18.596;2023-06-26T08:35:11;10.35;;;3.60;;
36355;SDS011;22384;54.302;18.596;2023-06-26T08:37:37;5.10;;;3.15;;
36355;SDS011;22384;54.302;18.596;2023-06-26T08:40:03;6.65;;;2.97;;
36355;SDS011;22384;54.302;18.596;2023-06-26T08:42:30;7.20;;;3.40;;
36355;SDS011;22384;54.302;18.596;2023-06-26T08:44:56;8.73;;;3.03;;
36355;SDS011;22384;54.302;18.596;2023-06-26T08:47:22;7.30;;;2.92;;
36355;SDS011;22384;54.302;18.596;2023-06-26T08:52:18;8.65;;;3.42;;
36355;SDS011;22384;54.302;18.596;2023-06-26T08:54:46;5.57;;;3.58;;
36355;SDS011;22384;54.302;18.596;2023-06-26T08:57:13;7.93;;;2.60;;
36355;SDS011;22384;54.302;18.596;2023-06-26T08:59:40;9.48;;;2.97;;
36355;SDS011;22384;54.302;18.596;2023-06-26T09:02:06;8.10;;;3.30;;
36355;SDS011;22384;54.302;18.596;2023-06-26T09:04:33;9.48;;;3.38;;
36355;SDS011;22384;54.302;18.596;2023-06-26T09:07:00;6.68;;;2.78;;
36355;SDS011;22384;54.302;18.596;2023-06-26T09:09:26;9.30;;;3.00;;
36355;SDS011;22384;54.302;18.596;2023-06-26T09:11:52;8.88;;;3.17;;
36355;SDS011;22384;54.302;18.596;2023-06-26T09:14:20;6.30;;;2.40;;
36355;SDS011;22384;54.302;18.596;2023-06-26T09:16:46;7.63;;;2.90;;
36355;SDS011;22384;54.302;18.596;2023-06-26T09:19:12;4.38;;;2.70;;
36355;SDS011;22384;54.302;18.596;2023-06-26T09:21:42;6.90;;;3.40;;
36355;SDS011;22384;54.302;18.596;2023-06-26T09:24:08;8.20;;;3.55;;
36355;SDS011;22384;54.302;18.596;2023-06-26T09:26:35;5.07;;;2.58;;
36355;SDS011;22384;54.302;18.596;2023-06-26T09:29:02;5.55;;;3.15;;
36355;SDS011;22384;54.302;18.596;2023-06-26T09:31:28;11.25;;;3.10;;
36355;SDS011;22384;54.302;18.596;2023-06-26T09:33:58;4.30;;;2.95;;
36355;SDS011;22384;54.302;18.596;2023-06-26T09:36:26;8.10;;;2.63;;
36355;SDS011;22384;54.302;18.596;2023-06-26T09:38:52;12.55;;;2.85;;
36355;SDS011;22384;54.302;18.596;2023-06-26T09:41:18;5.57;;;2.60;;
36355;SDS011;22384;54.302;18.596;2023-06-26T09:43:47;7.38;;;2.78;;
36355;SDS011;22384;54.302;18.596;2023-06-26T09:46:26;5.22;;;2.67;;
36355;SDS011;22384;54.302;18.596;2023-06-26T09:49:03;4.50;;;2.97;;
36355;SDS011;22384;54.302;18.596;2023-06-26T09:51:35;8.18;;;2.80;;
36355;SDS011;22384;54.302;18.596;2023-06-26T09:54:02;5.15;;;2.33;;
36355;SDS011;22384;54.302;18.596;2023-06-26T09:56:29;4.82;;;2.83;;
36355;SDS011;22384;54.302;18.596;2023-06-26T09:58:55;4.70;;;2.80;;
36355;SDS011;22384;54.302;18.596;2023-06-26T10:01:22;5.78;;;2.83;;
36355;SDS011;22384;54.302;18.596;2023-06-26T10:03:48;6.05;;;2.75;;
36355;SDS011;22384;54.302;18.596;2023-06-26T10:06:15;7.35;;;2.92;;
36355;SDS011;22384;54.302;18.596;2023-06-26T10:08:43;6.85;;;3.08;;
36355;SDS011;22384;54.302;18.596;2023-06-26T10:11:11;11.23;;;2.50;;
36355;SDS011;22384;54.302;18.596;2023-06-26T10:13:39;4.20;;;2.63;;
36355;SDS011;22384;54.302;18.596;2023-06-26T10:16:11;5.53;;;2.50;;
36355;SDS011;22384;54.302;18.596;2023-06-26T10:18:38;6.20;;;2.75;;
36355;SDS011;22384;54.302;18.596;2023-06-26T10:21:04;6.00;;;2.72;;
36355;SDS011;22384;54.302;18.596;2023-06-26T10:23:31;8.57;;;3.13;;
36355;SDS011;22384;54.302;18.596;2023-06-26T10:25:58;4.50;;;2.70;;
36355;SDS011;22384;54.302;18.596;2023-06-26T10:28:24;4.72;;;2.65;;
36355;SDS011;22384;54.302;18.596;2023-06-26T10:30:52;5.97;;;2.63;;
36355;SDS011;22384;54.302;18.596;2023-06-26T10:33:19;3.22;;;2.42;;
36355;SDS011;22384;54.302;18.596;2023-06-26T10:35:45;4.78;;;2.70;;
36355;SDS011;22384;54.302;18.596;2023-06-26T10:38:12;5.60;;;2.53;;
36355;SDS011;22384;54.302;18.596;2023-06-26T10:40:47;6.28;;;2.40;;
36355;SDS011;22384;54.302;18.596;2023-06-26T10:43:15;5.55;;;2.40;;
36355;SDS011;22384;54.302;18.596;2023-06-26T10:45:45;8.48;;;3.30;;
36355;SDS011;22384;54.302;18.596;2023-06-26T10:48:15;6.35;;;2.65;;
36355;SDS011;22384;54.302;18.596;2023-06-26T10:50:41;4.78;;;2.53;;
36355;SDS011;22384;54.302;18.596;2023-06-26T10:55:33;4.25;;;2.95;;
36355;SDS011;22384;54.302;18.596;2023-06-26T10:57:59;4.70;;;2.50;;
36355;SDS011;22384;54.302;18.596;2023-06-26T11:00:25;5.25;;;2.60;;
36355;SDS011;22384;54.302;18.596;2023-06-26T11:02:51;4.68;;;2.90;;
36355;SDS011;22384;54.302;18.596;2023-06-26T11:05:27;8.05;;;2.42;;
36355;SDS011;22384;54.302;18.596;2023-06-26T11:08:04;3.83;;;2.50;;
36355;SDS011;22384;54.302;18.596;2023-06-26T11:10:30;6.85;;;2.35;;
36355;SDS011;22384;54.302;18.596;2023-06-26T11:13:13;4.25;;;2.80;;
36355;SDS011;22384;54.302;18.596;2023-06-26T11:15:40;3.75;;;2.53;;
36355;SDS011;22384;54.302;18.596;2023-06-26T11:18:09;5.43;;;3.00;;
36355;SDS011;22384;54.302;18.596;2023-06-26T11:20:35;3.38;;;2.55;;
36355;SDS011;22384;54.302;18.596;2023-06-26T11:23:01;6.13;;;2.53;;
36355;SDS011;22384;54.302;18.596;2023-06-26T11:25:33;5.43;;;2.50;;
36355;SDS011;22384;54.302;18.596;2023-06-26T11:28:00;5.00;;;3.13;;
36355;SDS011;22384;54.302;18.596;2023-06-26T11:30:26;4.78;;;2.70;;
36355;SDS011;22384;54.302;18.596;2023-06-26T11:32:52;7.38;;;2.50;;
36355;SDS011;22384;54.302;18.596;2023-06-26T11:35:22;2.70;;;2.30;;
36355;SDS011;22384;54.302;18.596;2023-06-26T11:37:55;4.13;;;2.58;;
36355;SDS011;22384;54.302;18.596;2023-06-26T11:40:22;2.83;;;2.08;;
36355;SDS011;22384;54.302;18.596;2023-06-26T11:42:52;2.95;;;2.28;;
36355;SDS011;22384;54.302;18.596;2023-06-26T11:45:19;2.35;;;2.15;;
36355;SDS011;22384;54.302;18.596;2023-06-26T11:47:45;3.78;;;2.40;;
36355;SDS011;22384;54.302;18.596;2023-06-26T11:50:15;15.40;;;3.50;;
36355;SDS011;22384;54.302;18.596;2023-06-26T11:52:45;5.88;;;2.30;;
36355;SDS011;22384;54.302;18.596;2023-06-26T11:55:11;10.57;;;2.50;;
36355;SDS011;22384;54.302;18.596;2023-06-26T11:57:37;3.33;;;2.30;;
36355;SDS011;22384;54.302;18.596;2023-06-26T12:00:13;4.07;;;2.13;;
36355;SDS011;22384;54.302;18.596;2023-06-26T12:02:39;4.53;;;2.00;;
36355;SDS011;22384;54.302;18.596;2023-06-26T12:05:05;2.85;;;2.00;;
36355;SDS011;22384;54.302;18.596;2023-06-26T12:07:32;3.80;;;2.08;;
36355;SDS011;22384;54.302;18.596;2023-06-26T12:09:59;4.13;;;2.17;;
36355;SDS011;22384;54.302;18.596;2023-06-26T12:12:25;2.90;;;2.03;;
36355;SDS011;22384;54.302;18.596;2023-06-26T12:14:51;4.38;;;2.33;;
36355;SDS011;22384;54.302;18.596;2023-06-26T12:17:17;3.80;;;2.00;;
36355;SDS011;22384;54.302;18.596;2023-06-26T12:19:48;2.20;;;1.80;;
36355;SDS011;22384;54.302;18.596;2023-06-26T12:22:15;2.67;;;1.92;;
36355;SDS011;22384;54.302;18.596;2023-06-26T12:24:41;6.40;;;1.90;;
36355;SDS011;22384;54.302;18.596;2023-06-26T12:27:17;5.22;;;2.15;;
36355;SDS011;22384;54.302;18.596;2023-06-26T12:29:51;3.30;;;2.00;;
36355;SDS011;22384;54.302;18.596;2023-06-26T12:32:18;4.07;;;1.80;;
36355;SDS011;22384;54.302;18.596;2023-06-26T12:34:47;3.05;;;1.83;;
36355;SDS011;22384;54.302;18.596;2023-06-26T12:37:14;4.80;;;2.33;;
36355;SDS011;22384;54.302;18.596;2023-06-26T12:39:47;2.95;;;2.30;;
36355;SDS011;22384;54.302;18.596;2023-06-26T12:42:16;2.45;;;2.25;;
36355;SDS011;22384;54.302;18.596;2023-06-26T12:44:42;3.63;;;2.10;;
36355;SDS011;22384;54.302;18.596;2023-06-26T12:47:08;5.82;;;2.35;;
36355;SDS011;22384;54.302;18.596;2023-06-26T12:49:35;4.60;;;2.38;;
36355;SDS011;22384;54.302;18.596;2023-06-26T12:52:02;3.70;;;2.00;;
36355;SDS011;22384;54.302;18.596;2023-06-26T12:54:28;2.53;;;1.90;;
36355;SDS011;22384;54.302;18.596;2023-06-26T12:56:55;2.15;;;1.70;;
36355;SDS011;22384;54.302;18.596;2023-06-26T12:59:21;3.88;;;2.20;;
36355;SDS011;22384;54.302;18.596;2023-06-26T13:01:47;6.40;;;2.10;;
36355;SDS011;22384;54.302;18.596;2023-06-26T13:04:13;4.03;;;1.80;;
36355;SDS011;22384;54.302;18.596;2023-06-26T13:06:39;7.28;;;2.10;;
36355;SDS011;22384;54.302;18.596;2023-06-26T13:09:05;5.40;;;2.10;;
36355;SDS011;22384;54.302;18.596;2023-06-26T13:11:32;4.40;;;1.90;;
36355;SDS011;22384;54.302;18.596;2023-06-26T13:13:58;3.17;;;1.85;;
36355;SDS011;22384;54.302;18.596;2023-06-26T13:16:24;3.08;;;2.20;;
36355;SDS011;22384;54.302;18.596;2023-06-26T13:18:50;3.10;;;2.03;;
36355;SDS011;22384;54.302;18.596;2023-06-26T13:21:16;4.82;;;2.15;;
36355;SDS011;22384;54.302;18.596;2023-06-26T13:23:43;4.53;;;1.80;;
36355;SDS011;22384;54.302;18.596;2023-06-26T13:26:09;3.22;;;2.00;;
36355;SDS011;22384;54.302;18.596;2023-06-26T13:28:35;2.08;;;1.83;;
36355;SDS011;22384;54.302;18.596;2023-06-26T13:31:02;2.10;;;1.63;;
36355;SDS011;22384;54.302;18.596;2023-06-26T13:33:28;2.55;;;1.90;;
36355;SDS011;22384;54.302;18.596;2023-06-26T13:35:54;2.20;;;1.92;;
36355;SDS011;22384;54.302;18.596;2023-06-26T13:38:20;2.33;;;2.03;;
36355;SDS011;22384;54.302;18.596;2023-06-26T13:40:55;2.33;;;2.13;;
36355;SDS011;22384;54.302;18.596;2023-06-26T13:43:25;5.85;;;2.20;;
36355;SDS011;22384;54.302;18.596;2023-06-26T13:45:52;4.60;;;1.80;;
36355;SDS011;22384;54.302;18.596;2023-06-26T13:48:18;6.57;;;2.17;;
36355;SDS011;22384;54.302;18.596;2023-06-26T13:50:44;3.78;;;2.13;;
36355;SDS011;22384;54.302;18.596;2023-06-26T13:53:10;5.13;;;1.90;;
36355;SDS011;22384;54.302;18.596;2023-06-26T13:55:36;8.57;;;2.38;;
36355;SDS011;22384;54.302;18.596;2023-06-26T13:58:03;4.95;;;2.20;;
36355;SDS011;22384;54.302;18.596;2023-06-26T14:00:30;3.80;;;2.47;;
36355;SDS011;22384;54.302;18.596;2023-06-26T14:02:56;5.32;;;2.47;;
36355;SDS011;22384;54.302;18.596;2023-06-26T14:05:22;3.00;;;2.20;;
36355;SDS011;22384;54.302;18.596;2023-06-26T14:07:48;2.88;;;2.33;;
36355;SDS011;22384;54.302;18.596;2023-06-26T14:10:14;3.30;;;2.40;;
36355;SDS011;22384;54.302;18.596;2023-06-26T14:12:40;2.83;;;2.15;;
36355;SDS011;22384;54.302;18.596;2023-06-26T14:15:07;5.65;;;2.20;;
36355;SDS011;22384;54.302;18.596;2023-06-26T14:17:33;6.28;;;2.40;;
36355;SDS011;22384;54.302;18.596;2023-06-26T14:19:59;5.35;;;2.67;;
36355;SDS011;22384;54.302;18.596;2023-06-26T14:22:25;3.10;;;1.88;;
36355;SDS011;22384;54.302;18.596;2023-06-26T14:24:51;5.50;;;2.20;;
36355;SDS011;22384;54.302;18.596;2023-06-26T14:27:17;2.85;;;2.50;;
36355;SDS011;22384;54.302;18.596;2023-06-26T14:29:43;4.20;;;1.88;;
36355;SDS011;22384;54.302;18.596;2023-06-26T14:32:10;5.32;;;2.20;;
36355;SDS011;22384;54.302;18.596;2023-06-26T14:34:36;6.32;;;2.17;;
36355;SDS011;22384;54.302;18.596;2023-06-26T14:37:02;4.05;;;2.10;;
36355;SDS011;22384;54.302;18.596;2023-06-26T14:39:28;6.45;;;2.20;;
36355;SDS011;22384;54.302;18.596;2023-06-26T14:41:54;3.08;;;2.22;;